Warren, Ohio
Current Conditions -  °F | °C
As of 3:51 AM on Monday 22 Dec 2014 (Local Time) from KYNG Reporting Station
Scattered Clouds Scattered Clouds  
Wind Chill: 14°   Ceiling: Unl
Heat Index: 23°   Visibility: 10mi
Dew Point: 20°   Wind: 8mph
Humidity: 88%   Direction: 110°ESE
Pressure: 30.12"   Gusts: NA
Location:  41.24°N, 80.81°W
Report Text: KYNG 220851Z 11007KT 10SM SCT250 M05/M07 A3012 RMK AO2 SLP215 T10501067 58009
Loading
Personal Weather Stations






























Interactive Weather Map New forecast layout! Learn more

10-Day Weather Forecast

Advertisements
Track Severe Weather on mobile